< < Back
Terminal Aerodrome Forecast


Current Version              Previous Versions:   1  2  3  4  5  6  7  8  9  

Terminal Aerodrome Forecast

640
FTUS42 KFFC 270522
TAFCSG
TAF
KCSG 270522Z 2706/2806 28007KT P6SM -SHRA SCT025 OVC040
      TEMPO 2706/2708 -TSRA BKN025CB
     FM270900 31010KT P6SM OVC008
     FM271400 33011G21KT P6SM OVC015
     FM271700 33013G23KT P6SM SCT025 BKN050
     FM272100 32012G22KT P6SM SCT035
     FM280000 32010KT P6SM BKN050=

Latest METAR

405
SAUS70 KWBC 271500
MTRCSG
METAR KCSG 271451Z 34010G18KT 10SM OVC013 10/06 A2989 RMK AO2 SLP119
T01000061 53025


USA.gov is the U.S. government's official web portal to all federal, state and local government web resources and services.